Time;durP1;ratioP1;P1;durP2;ratioP2;P2;SDS_P1;SDS_P2;PMS_P1;PMS_P2;Temp;Humidity;BMP_temperature;BMP_pressure;BME280_temperature;BME280_humidity;BME280_pressure;Samples;Min_cycle;Max_cycle;Signal;HPM_P1;HPM_P2
2022/03/08 00:04:22;;;;;;;54.10;50.70;;;;;;;2.61;100.00;101835.23;2014330;71;32815;-72
2022/03/08 00:10:09;;;;;;;56.60;53.10;;;;;;;2.63;100.00;101827.63;2016635;71;33319;-73
2022/03/08 00:15:53;;;;;;;58.33;54.67;;;;;;;2.37;100.00;101822.94;1998637;71;33345;-75
2022/03/08 00:21:38;;;;;;;61.77;57.97;;;;;;;2.38;100.00;101813.67;2009431;71;33382;-73
2022/03/08 00:27:23;;;;;;;58.60;54.70;;;;;;;2.52;100.00;101810.43;2005713;71;32789;-73
2022/03/08 00:33:07;;;;;;;59.67;55.87;;;;;;;2.39;100.00;101793.95;2014697;71;33259;-72
2022/03/08 00:38:52;;;;;;;65.63;61.53;;;;;;;2.29;100.00;101790.24;2009748;71;32782;-73
2022/03/08 00:44:36;;;;;;;69.03;64.63;;;;;;;2.39;100.00;101776.14;2007272;71;32820;-72
2022/03/08 00:50:25;;;;;;;72.03;67.73;;;;;;;2.38;100.00;101764.84;2010868;71;32938;-72
2022/03/08 00:56:10;;;;;;;78.77;73.83;;;;;;;2.28;100.00;101761.98;2008918;71;32965;-74
2022/03/08 01:01:55;;;;;;;77.60;72.70;;;;;;;2.34;100.00;101764.42;2009029;71;32953;-73
2022/03/08 01:07:40;;;;;;;82.80;77.50;;;;;;;2.00;100.00;101753.08;1996683;71;32755;-72
2022/03/08 01:13:26;;;;;;;83.60;78.33;;;;;;;2.31;100.00;101745.63;2000353;71;32829;-73
2022/03/08 01:19:10;;;;;;;85.57;79.97;;;;;;;2.39;100.00;101744.08;1998781;71;33268;-72
2022/03/08 01:24:54;;;;;;;83.17;77.73;;;;;;;2.43;100.00;101735.75;1998674;71;32766;-71
2022/03/08 01:30:38;;;;;;;84.17;78.53;;;;;;;2.33;100.00;101725.72;1991304;71;32765;-74
2022/03/08 01:36:24;;;;;;;83.87;78.47;;;;;;;2.36;100.00;101727.19;2016359;71;32914;-72
2022/03/08 01:42:14;;;;;;;84.47;79.07;;;;;;;2.34;100.00;101718.34;1991357;70;33241;-72
2022/03/08 01:47:59;;;;;;;84.67;79.17;;;;;;;2.06;100.00;101711.13;2004042;71;32829;-75
2022/03/08 01:53:43;;;;;;;83.87;78.47;;;;;;;2.10;100.00;101701.95;1998016;71;32868;-74
2022/03/08 01:59:28;;;;;;;85.23;79.77;;;;;;;2.11;100.00;101703.66;1995246;71;33332;-74
2022/03/08 02:05:12;;;;;;;84.93;79.53;;;;;;;2.17;100.00;101696.83;1969068;72;33406;-74
2022/03/08 02:10:57;;;;;;;86.23;80.63;;;;;;;2.06;100.00;101684.25;2009161;71;32921;-74
2022/03/08 02:16:42;;;;;;;86.87;80.93;;;;;;;1.94;100.00;101675.81;1999980;71;32814;-72
2022/03/08 02:22:27;;;;;;;85.57;79.67;;;;;;;2.04;100.00;101663.08;2009849;71;33236;-74
2022/03/08 02:28:11;;;;;;;86.30;80.50;;;;;;;1.96;100.00;101657.80;2011594;71;32806;-74
2022/03/08 02:33:55;;;;;;;86.67;80.93;;;;;;;1.91;100.00;101643.89;2016590;71;32806;-73
2022/03/08 02:39:41;;;;;;;86.60;81.00;;;;;;;1.82;100.00;101639.98;2013183;71;33230;-74
2022/03/08 02:45:25;;;;;;;88.77;82.80;;;;;;;1.87;100.00;101635.77;2007488;71;32806;-73
2022/03/08 02:51:09;;;;;;;87.60;81.80;;;;;;;1.84;100.00;101613.73;2009556;71;32874;-73
2022/03/08 02:56:54;;;;;;;88.33;82.53;;;;;;;1.77;100.00;101611.00;2009457;71;33353;-73
2022/03/08 03:02:39;;;;;;;87.93;82.03;;;;;;;1.94;100.00;101601.00;2005789;71;33341;-72
2022/03/08 03:08:25;;;;;;;89.47;83.63;;;;;;;2.02;100.00;101586.56;2016667;71;32977;-74
2022/03/08 03:14:10;;;;;;;88.27;82.23;;;;;;;2.02;100.00;101592.05;2014943;71;33278;-74
2022/03/08 03:19:54;;;;;;;84.20;78.77;;;;;;;2.19;100.00;101584.23;1991490;71;33249;-72
2022/03/08 03:25:38;;;;;;;85.33;79.77;;;;;;;2.13;100.00;101576.35;2009396;71;33347;-72
2022/03/08 03:31:22;;;;;;;85.20;79.80;;;;;;;2.00;100.00;101572.77;2009734;71;32752;-73
2022/03/08 03:37:07;;;;;;;85.77;80.17;;;;;;;1.92;100.00;101571.09;2008093;71;32949;-74
2022/03/08 03:42:51;;;;;;;86.03;80.23;;;;;;;1.97;100.00;101566.36;2015006;71;32873;-74
2022/03/08 03:48:35;;;;;;;89.13;83.03;;;;;;;2.06;100.00;101555.47;2013431;71;32817;-73
2022/03/08 03:54:20;;;;;;;85.90;80.10;;;;;;;1.91;100.00;101545.27;2009439;71;32814;-74
2022/03/08 04:00:06;;;;;;;83.03;77.57;;;;;;;2.00;100.00;101540.73;1996800;71;32808;-74
2022/03/08 04:05:50;;;;;;;86.17;80.53;;;;;;;1.97;100.00;101529.37;2009235;71;32893;-74
2022/03/08 04:11:34;;;;;;;83.10;77.47;;;;;;;1.88;100.00;101528.74;2018301;71;32811;-73
2022/03/08 04:17:19;;;;;;;85.50;79.83;;;;;;;1.81;100.00;101525.14;1998744;71;32842;-74
2022/03/08 04:23:03;;;;;;;84.17;78.73;;;;;;;2.14;100.00;101519.66;1991582;70;33230;-72
2022/03/08 04:28:50;;;;;;;84.90;79.10;;;;;;;2.06;100.00;101515.73;2016760;71;32817;-73
2022/03/08 04:34:34;;;;;;;85.93;80.03;;;;;;;2.04;100.00;101505.53;2003597;71;32813;-73
2022/03/08 04:40:19;;;;;;;85.60;79.60;;;;;;;2.01;100.00;101510.89;2000562;70;33416;-72
2022/03/08 04:46:03;;;;;;;86.50;80.23;;;;;;;2.00;100.00;101504.27;2014799;71;33157;-74
2022/03/08 04:51:48;;;;;;;85.53;79.80;;;;;;;1.83;100.00;101498.41;2006320;71;32839;-73
2022/03/08 04:57:33;;;;;;;85.83;79.87;;;;;;;1.87;100.00;101485.96;1996838;71;32759;-72
2022/03/08 05:03:21;;;;;;;83.70;77.93;;;;;;;1.96;100.00;101484.69;2008823;70;32931;-73
2022/03/08 05:09:05;;;;;;;87.77;81.83;;;;;;;1.93;100.00;101501.53;2011207;71;33398;-75
2022/03/08 05:14:49;;;;;;;84.67;78.57;;;;;;;1.96;100.00;101503.86;2007481;70;32873;-74
2022/03/08 05:20:36;;;;;;;85.93;80.03;;;;;;;1.81;100.00;101501.34;2013149;71;33007;-73
2022/03/08 05:26:20;;;;;;;86.40;80.23;;;;;;;1.90;100.00;101501.96;2002100;71;32947;-74
2022/03/08 05:32:05;;;;;;;89.07;83.10;;;;;;;1.93;100.00;101497.42;2018200;71;32976;-74
2022/03/08 05:37:49;;;;;;;87.40;81.07;;;;;;;1.70;100.00;101503.36;2016454;71;32824;-73
2022/03/08 05:43:33;;;;;;;88.23;81.70;;;;;;;1.71;100.00;101496.80;1995177;70;32932;-73
2022/03/08 05:49:17;;;;;;;89.93;83.30;;;;;;;1.53;100.00;101503.98;2000878;71;32802;-74
2022/03/08 05:55:01;;;;;;;90.10;83.23;;;;;;;1.71;100.00;101491.88;2006263;71;32832;-75
2022/03/08 06:00:46;;;;;;;91.40;84.37;;;;;;;1.86;100.00;101483.42;1994611;71;32953;-75
2022/03/08 06:06:30;;;;;;;91.77;84.97;;;;;;;1.95;100.00;101479.41;1994699;71;33339;-73
2022/03/08 06:12:15;;;;;;;88.77;81.93;;;;;;;2.02;100.00;101466.53;1994636;71;33367;-74
2022/03/08 06:17:59;;;;;;;89.17;82.27;;;;;;;2.01;100.00;101468.42;2006293;71;32754;-73
2022/03/08 06:23:47;;;;;;;89.90;83.10;;;;;;;1.92;100.00;101471.11;2000639;71;32793;-75
2022/03/08 06:29:31;;;;;;;90.17;83.37;;;;;;;2.02;100.00;101471.48;2014603;70;32870;-73
2022/03/08 06:35:17;;;;;;;91.00;83.90;;;;;;;1.98;100.00;101485.83;2005975;71;32752;-73
2022/03/08 06:41:02;;;;;;;92.47;85.37;;;;;;;1.73;100.00;101478.28;2006162;71;32749;-73
2022/03/08 06:46:47;;;;;;;91.47;84.30;;;;;;;1.73;100.00;101482.91;2014593;71;32828;-72
2022/03/08 06:52:31;;;;;;;94.77;87.17;;;;;;;2.01;100.00;101490.34;1998233;71;32921;-74
2022/03/08 06:58:15;;;;;;;93.73;85.73;;;;;;;1.77;100.00;101499.23;1995112;71;32769;-73
2022/03/08 07:03:59;;;;;;;92.73;85.23;;;;;;;1.74;100.00;101494.19;1999012;70;33299;-72
2022/03/08 07:09:43;;;;;;;91.50;83.33;;;;;;;1.77;100.00;101493.76;2011025;71;32854;-73
2022/03/08 07:15:28;;;;;;;94.43;86.40;;;;;;;1.90;100.00;101488.27;2005512;71;32781;-74
2022/03/08 07:21:13;;;;;;;96.43;88.43;;;;;;;1.83;100.00;101490.18;2015947;71;33017;-71
2022/03/08 07:26:57;;;;;;;95.23;87.10;;;;;;;1.86;100.00;101482.91;2016732;71;32828;-71
2022/03/08 07:32:49;;;;;;;96.40;88.03;;;;;;;2.08;100.00;101484.87;2009162;71;32859;-73
2022/03/08 07:38:34;;;;;;;95.63;87.83;;;;;;;2.46;100.00;101487.19;2014142;71;33368;-71
2022/03/08 07:44:18;;;;;;;92.43;84.97;;;;;;;2.76;100.00;101480.62;2013918;71;32900;-72
2022/03/08 07:50:05;;;;;;;92.90;85.37;;;;;;;3.28;100.00;101474.50;2003300;71;33476;-73
2022/03/08 07:55:50;;;;;;;94.83;86.93;;;;;;;3.48;100.00;101481.52;2007513;71;32764;-73
2022/03/08 08:01:34;;;;;;;96.20;88.50;;;;;;;3.95;100.00;101466.31;2014226;71;32899;-73
2022/03/08 08:07:20;;;;;;;92.73;85.33;;;;;;;4.07;100.00;101478.77;1994180;71;32871;-75
2022/03/08 08:13:05;;;;;;;90.63;83.37;;;;;;;4.40;100.00;101458.64;1996279;71;32979;-72
2022/03/08 08:18:53;;;;;;;88.83;81.97;;;;;;;4.77;100.00;101445.67;2012418;71;32850;-74
2022/03/08 08:24:39;;;;;;;86.43;79.57;;;;;;;4.95;100.00;101446.16;2010376;70;33327;-73
2022/03/08 08:30:25;;;;;;;87.63;80.87;;;;;;;5.15;100.00;101454.13;2010789;71;32746;-74
2022/03/08 08:36:09;;;;;;;85.60;79.40;;;;;;;5.48;100.00;101458.03;2016119;71;33291;-73
2022/03/08 08:41:54;;;;;;;82.37;76.37;;;;;;;5.69;100.00;101442.84;2010902;71;32950;-72
2022/03/08 08:47:40;;;;;;;84.07;77.67;;;;;;;5.94;100.00;101444.05;2003636;71;32760;-73
2022/03/08 08:53:26;;;;;;;78.90;73.30;;;;;;;6.21;100.00;101439.68;2016324;71;32956;-72
2022/03/08 08:59:14;;;;;;;75.60;69.97;;;;;;;6.39;100.00;101433.17;1990710;71;32895;-73
2022/03/08 09:04:57;;;;;;;75.40;69.80;;;;;;;6.73;100.00;101441.05;1979575;72;33499;-73
2022/03/08 09:10:42;;;;;;;71.57;66.63;;;;;;;6.80;100.00;101443.96;1996199;71;32898;-73
2022/03/08 09:16:27;;;;;;;72.30;66.80;;;;;;;6.94;100.00;101434.84;2010832;71;32940;-72
2022/03/08 09:22:14;;;;;;;73.40;67.70;;;;;;;7.03;100.00;101434.75;2002969;71;32938;-70
2022/03/08 09:28:01;;;;;;;65.33;60.27;;;;;;;7.07;100.00;101429.56;2015902;71;33404;-71
2022/03/08 09:33:50;;;;;;;67.67;62.67;;;;;;;7.18;100.00;101428.14;2016165;71;32921;-71
2022/03/08 09:39:36;;;;;;;71.53;66.10;;;;;;;7.28;100.00;101428.30;2007045;71;33063;-71
2022/03/08 09:45:22;;;;;;;66.60;61.70;;;;;;;7.47;100.00;101428.91;2003269;71;32870;-71
2022/03/08 09:51:07;;;;;;;65.50;60.53;;;;;;;7.35;100.00;101426.77;2014408;70;32907;-74
2022/03/08 09:56:51;;;;;;;62.87;57.93;;;;;;;7.57;100.00;101425.48;2010284;71;32816;-73
2022/03/08 10:02:50;;;;;;;62.13;57.60;;;;;;;7.95;100.00;101417.25;2003668;70;34378;-70
2022/03/08 10:08:35;;;;;;;61.10;56.37;;;;;;;8.04;100.00;101407.97;1994612;71;32802;-70
2022/03/08 10:14:37;;;;;;;64.17;59.07;;;;;;;8.02;100.00;101401.83;1996224;71;32731;-71
2022/03/08 10:20:29;;;;;;;56.07;51.77;;;;;;;8.29;100.00;101400.04;2015987;71;33290;-71
2022/03/08 10:26:13;;;;;;;55.90;51.47;;;;;;;8.15;100.00;101395.94;1994581;71;32866;-74
2022/03/08 10:32:09;;;;;;;54.07;50.03;;;;;;;8.24;100.00;101388.86;2003149;71;32897;-75
2022/03/08 10:37:57;;;;;;;55.50;51.27;;;;;;;8.41;100.00;101381.91;2014195;71;33313;-73
2022/03/08 10:43:51;;;;;;;55.33;51.00;;;;;;;8.69;100.00;101365.91;2009419;71;32755;-72
2022/03/08 10:49:37;;;;;;;52.37;47.97;;;;;;;8.80;100.00;101359.94;1999988;71;32745;-75
2022/03/08 10:55:25;;;;;;;50.47;46.33;;;;;;;8.92;100.00;101360.62;1994113;71;32878;-74
2022/03/08 11:01:13;;;;;;;47.07;43.57;;;;;;;9.17;100.00;101352.25;1994367;70;32771;-75
2022/03/08 11:07:10;;;;;;;50.47;46.57;;;;;;;9.10;100.00;101343.62;1990860;71;32817;-76
2022/03/08 11:12:55;;;;;;;50.67;46.50;;;;;;;9.38;100.00;101313.34;2008856;71;32888;-73
2022/03/08 11:18:45;;;;;;;51.97;47.67;;;;;;;9.49;100.00;101333.67;2008614;71;32990;-71
2022/03/08 11:24:32;;;;;;;46.03;42.33;;;;;;;9.42;100.00;101341.36;2002941;71;33462;-75
2022/03/08 11:30:22;;;;;;;43.17;39.57;;;;;;;9.66;100.00;101325.19;1994118;71;32990;-73
2022/03/08 11:36:16;;;;;;;38.80;35.60;;;;;;;9.89;100.00;101326.14;2005832;71;32896;-72
2022/03/08 11:39:06;;;;;;;39.87;36.57;;;;;;;9.94;100.00;101328.95;1971138;72;26208;-72
2022/03/08 11:44:59;;;;;;;38.87;35.37;;;;;;;10.11;100.00;101328.75;1990789;71;32741;-71
2022/03/08 11:50:53;;;;;;;37.77;34.47;;;;;;;10.12;100.00;101321.55;1998091;71;32805;-76
2022/03/08 11:56:47;;;;;;;36.57;33.37;;;;;;;10.30;100.00;101319.73;2002062;70;32776;-70
2022/03/08 12:02:31;;;;;;;37.93;34.43;;;;;;;10.25;100.00;101310.53;2012397;71;32854;-74
2022/03/08 12:08:50;;;;;;;34.43;31.27;;;;;;;10.50;100.00;101304.52;2015958;71;32848;-73
2022/03/08 12:14:57;;;;;;;33.37;29.90;;;;;;;10.47;100.00;101295.34;1990882;71;32781;-71
2022/03/08 12:20:42;;;;;;;31.43;28.60;;;;;;;10.56;100.00;101316.48;2012562;71;33377;-74
2022/03/08 12:26:28;;;;;;;29.53;26.80;;;;;;;10.33;100.00;101309.45;2015014;71;32937;-71
2022/03/08 12:32:43;;;;;;;34.67;31.77;;;;;;;10.30;100.00;101310.56;1991584;71;32896;-74
2022/03/08 12:38:41;;;;;;;33.80;30.77;;;;;;;10.48;100.00;101299.77;1999975;71;32790;-71
2022/03/08 12:44:25;;;;;;;28.13;25.53;;;;;;;10.81;100.00;101297.08;2012729;71;33289;-72
2022/03/08 12:50:14;;;;;;;27.70;25.23;;;;;;;10.94;100.00;101295.14;1990682;71;30802;-74
2022/03/08 12:56:01;;;;;;;28.00;25.17;;;;;;;11.12;100.00;101296.55;2008974;71;33295;-74
2022/03/08 13:01:47;;;;;;;27.23;24.77;;;;;;;11.07;100.00;101299.88;2014171;71;33411;-74
2022/03/08 13:07:52;;;;;;;27.20;24.80;;;;;;;11.20;100.00;101297.93;2005804;71;33264;-72
2022/03/08 13:13:39;;;;;;;27.27;24.57;;;;;;;11.20;100.00;101288.20;2010548;71;32927;-74
2022/03/08 13:19:23;;;;;;;27.70;25.13;;;;;;;11.37;100.00;101281.78;2017975;71;32971;-72
2022/03/08 13:25:15;;;;;;;28.20;25.43;;;;;;;11.19;100.00;101285.97;1999720;71;30951;-75
2022/03/08 13:31:07;;;;;;;26.23;23.93;;;;;;;11.36;100.00;101271.22;2014358;71;32896;-71
2022/03/08 13:36:59;;;;;;;27.37;24.87;;;;;;;11.41;100.00;101275.94;1990855;71;32807;-75
2022/03/08 13:42:46;;;;;;;27.80;25.07;;;;;;;11.55;100.00;101260.90;2015949;71;33346;-73
2022/03/08 13:48:33;;;;;;;26.20;23.70;;;;;;;11.72;100.00;101259.47;2015860;71;32837;-74
2022/03/08 13:54:18;;;;;;;24.47;22.17;;;;;;;11.66;100.00;101255.57;2009092;71;32852;-73
2022/03/08 14:00:05;;;;;;;25.63;23.23;;;;;;;11.95;100.00;101252.44;1990718;71;32836;-73
2022/03/08 14:05:57;;;;;;;24.00;21.70;;;;;;;11.97;100.00;101250.77;2010957;71;32903;-72
2022/03/08 14:11:56;;;;;;;23.93;21.93;;;;;;;12.18;100.00;101237.02;2012694;71;32897;-73
2022/03/08 14:14:32;;;;;;;25.27;22.77;;;;;;;12.25;100.00;101244.50;1965722;72;26283;-74
2022/03/08 14:20:18;;;;;;;25.97;23.63;;;;;;;12.24;100.00;101245.05;1997796;71;32888;-75
2022/03/08 14:26:19;;;;;;;23.30;21.07;;;;;;;12.32;100.00;101236.67;2008672;70;32838;-74
2022/03/08 14:32:09;;;;;;;23.10;21.00;;;;;;;12.34;100.00;101226.06;2013952;71;32892;-72
2022/03/08 14:38:03;;;;;;;22.93;20.83;;;;;;;12.54;100.00;101228.70;1999946;71;32869;-71
2022/03/08 14:43:52;;;;;;;24.37;22.17;;;;;;;12.21;100.00;101236.44;2014189;71;32957;-74
2022/03/08 14:49:39;;;;;;;25.33;22.97;;;;;;;12.29;100.00;101237.23;2014197;71;32896;-72
2022/03/08 14:55:32;;;;;;;24.70;22.40;;;;;;;12.35;100.00;101246.40;2009139;71;32833;-72
2022/03/08 15:01:17;;;;;;;22.97;20.97;;;;;;;12.49;100.00;101250.22;2014033;71;34214;-71
2022/03/08 15:07:01;;;;;;;24.70;22.33;;;;;;;12.71;100.00;101247.26;2000016;71;32766;-73
2022/03/08 15:12:45;;;;;;;23.27;21.03;;;;;;;12.75;100.00;101248.34;2015721;71;32997;-73
2022/03/08 15:18:31;;;;;;;23.37;21.17;;;;;;;12.74;100.00;101250.88;2008680;71;33362;-72
2022/03/08 15:24:18;;;;;;;23.57;21.33;;;;;;;12.59;100.00;101250.14;2006538;70;32931;-74
2022/03/08 15:30:04;;;;;;;23.73;21.23;;;;;;;12.75;100.00;101245.55;1996594;71;33329;-74
2022/03/08 15:35:50;;;;;;;24.57;22.20;;;;;;;12.41;100.00;101242.48;2012267;71;32932;-73
2022/03/08 15:41:37;;;;;;;22.77;20.77;;;;;;;12.40;100.00;101250.55;2010506;70;32815;-74
2022/03/08 15:47:22;;;;;;;24.50;22.13;;;;;;;12.38;100.00;101263.92;1965114;72;32853;-73
2022/03/08 15:53:06;;;;;;;25.10;22.57;;;;;;;12.33;100.00;101267.56;2005507;71;33247;-73
2022/03/08 15:58:51;;;;;;;24.20;21.90;;;;;;;12.25;100.00;101281.54;1994428;70;33204;-73
2022/03/08 16:04:37;;;;;;;24.83;22.53;;;;;;;12.10;100.00;101287.19;2003759;70;32933;-70
2022/03/08 16:10:21;;;;;;;25.03;22.53;;;;;;;12.06;100.00;101290.28;1994057;71;32906;-76
2022/03/08 16:16:06;;;;;;;23.80;21.63;;;;;;;12.01;100.00;101294.47;2000048;71;32851;-74
2022/03/08 16:21:51;;;;;;;26.07;23.53;;;;;;;11.90;100.00;101296.15;2012259;71;32823;-71
2022/03/08 16:27:36;;;;;;;27.77;25.13;;;;;;;11.77;100.00;101312.34;2006969;71;32817;-76
2022/03/08 16:33:23;;;;;;;28.87;26.03;;;;;;;11.70;100.00;101311.77;2005703;71;33268;-70
2022/03/08 16:39:08;;;;;;;29.13;25.67;;;;;;;11.58;100.00;101307.63;2005751;71;32905;-69
2022/03/08 16:44:56;;;;;;;27.07;24.37;;;;;;;11.51;100.00;101309.28;2014692;71;32872;-78
2022/03/08 16:50:40;;;;;;;29.33;26.53;;;;;;;11.39;100.00;101325.44;2018361;71;32866;-78
2022/03/08 16:56:25;;;;;;;28.87;26.07;;;;;;;11.29;100.00;101331.86;2002088;71;32972;-86
2022/03/08 17:02:11;;;;;;;27.97;25.30;;;;;;;11.20;100.00;101328.52;1994295;71;32824;-77
2022/03/08 17:07:56;;;;;;;28.83;25.83;;;;;;;11.18;100.00;101333.50;2011208;71;32944;-78
2022/03/08 17:13:40;;;;;;;29.30;26.30;;;;;;;11.11;100.00;101335.73;2002504;71;32823;-79
2022/03/08 17:19:25;;;;;;;31.13;28.00;;;;;;;11.03;100.00;101341.30;2007376;71;33229;-70
2022/03/08 17:25:11;;;;;;;29.63;26.73;;;;;;;10.97;100.00;101346.56;2013960;71;32815;-75
2022/03/08 17:30:57;;;;;;;30.80;27.80;;;;;;;10.93;100.00;101350.45;1994428;71;32858;-79
2022/03/08 17:36:43;;;;;;;32.30;28.67;;;;;;;10.87;100.00;101351.54;2017967;70;32924;-73
2022/03/08 17:42:32;;;;;;;32.43;29.13;;;;;;;10.81;100.00;101360.99;1994431;71;32750;-73
2022/03/08 17:48:17;;;;;;;31.60;28.37;;;;;;;10.80;100.00;101373.21;2015877;71;32914;-78
2022/03/08 17:54:02;;;;;;;32.50;29.10;;;;;;;10.84;100.00;101376.27;2002772;71;33290;-86
2022/03/08 17:59:49;;;;;;;32.60;29.13;;;;;;;10.81;100.00;101390.17;2007458;71;32784;-74
2022/03/08 18:05:34;;;;;;;32.43;29.17;;;;;;;10.79;100.00;101390.14;2009507;71;32885;-71
2022/03/08 18:11:19;;;;;;;32.43;28.93;;;;;;;10.78;100.00;101385.14;2008811;71;32868;-73
2022/03/08 18:17:03;;;;;;;34.97;30.30;;;;;;;10.48;100.00;101365.04;2009613;71;32815;-71
2022/03/08 18:22:51;;;;;;;34.07;30.73;;;;;;;10.61;100.00;101406.75;2009100;71;32851;-83
2022/03/08 18:28:58;;;;;;;34.27;30.73;;;;;;;10.55;100.00;101406.47;2009366;71;32878;-83
2022/03/08 18:34:42;;;;;;;34.60;30.90;;;;;;;10.54;100.00;101424.78;2014305;71;33016;-76
2022/03/08 18:40:30;;;;;;;33.80;30.33;;;;;;;10.52;100.00;101426.47;2000080;71;32914;-75
2022/03/08 18:46:14;;;;;;;35.17;31.37;;;;;;;10.53;100.00;101427.27;1999544;71;32814;-76
2022/03/08 18:51:58;;;;;;;34.87;31.17;;;;;;;10.50;100.00;101428.11;2010818;71;32922;-80
2022/03/08 18:57:43;;;;;;;36.17;32.37;;;;;;;10.54;100.00;101434.50;2017371;71;32791;-77
2022/03/08 19:03:30;;;;;;;35.30;31.73;;;;;;;10.48;100.00;101432.28;2005736;70;33199;-76
2022/03/08 19:09:15;;;;;;;35.83;32.00;;;;;;;10.48;100.00;101438.64;2009272;71;32902;-81
2022/03/08 19:15:05;;;;;;;37.80;33.73;;;;;;;10.46;100.00;101431.70;2003616;70;32863;-80
2022/03/08 19:20:52;;;;;;;36.20;32.60;;;;;;;10.41;100.00;101432.51;1991845;71;32752;-79
2022/03/08 19:26:42;;;;;;;40.27;34.87;;;;;;;10.39;100.00;101434.73;2011226;71;33417;-76
2022/03/08 19:32:27;;;;;;;39.10;34.30;;;;;;;10.27;100.00;101433.28;1961795;72;32917;-75
2022/03/08 19:38:14;;;;;;;38.97;34.80;;;;;;;10.22;100.00;101429.08;2018459;71;32928;-74
2022/03/08 19:44:16;;;;;;;41.63;35.60;;;;;;;10.16;100.00;101425.98;2001583;69;32852;-78
2022/03/08 19:50:02;;;;;;;38.53;34.43;;;;;;;10.10;100.00;101436.17;1999864;71;32867;-74
2022/03/08 19:55:47;;;;;;;39.13;35.03;;;;;;;10.08;100.00;101437.55;1996483;71;32760;-74
2022/03/08 20:01:31;;;;;;;40.10;35.83;;;;;;;10.12;100.00;101424.81;2001409;71;32884;-72
2022/03/08 20:07:14;;;;;;;38.57;34.47;;;;;;;10.02;100.00;101409.76;2008628;71;32816;-76
2022/03/08 20:12:58;;;;;;;41.50;36.90;;;;;;;10.02;100.00;101404.76;2001875;71;33335;-74
2022/03/08 20:18:45;;;;;;;41.53;36.20;;;;;;;10.06;100.00;101408.12;2003550;71;32764;-75
2022/03/08 20:24:30;;;;;;;40.40;36.00;;;;;;;9.94;100.00;101400.55;2003666;70;32845;-77
2022/03/08 20:30:15;;;;;;;42.20;37.33;;;;;;;9.92;100.00;101418.04;2014153;70;32893;-77
2022/03/08 20:36:01;;;;;;;40.17;35.90;;;;;;;9.83;100.00;101411.86;2015831;71;32839;-73
2022/03/08 20:41:50;;;;;;;42.30;37.93;;;;;;;9.93;100.00;101414.14;2014086;70;32888;-73
2022/03/08 20:47:35;;;;;;;43.00;38.17;;;;;;;9.97;100.00;101421.38;2001789;71;32841;-75
2022/03/08 20:53:23;;;;;;;43.30;38.60;;;;;;;9.87;100.00;101431.88;1999994;71;32851;-75
2022/03/08 20:59:07;;;;;;;42.07;37.67;;;;;;;9.83;100.00;101440.99;2009296;70;32821;-78
2022/03/08 21:04:50;;;;;;;41.53;37.10;;;;;;;9.79;100.00;101451.80;1936108;71;33046;-74
2022/03/08 21:10:38;;;;;;;44.40;39.70;;;;;;;9.66;100.00;101473.59;2014053;71;32839;-72
2022/03/08 21:16:22;;;;;;;43.70;39.23;;;;;;;9.69;100.00;101465.57;2010800;71;32837;-78
2022/03/08 21:22:07;;;;;;;48.23;43.17;;;;;;;9.43;100.00;101485.84;2001735;70;32772;-75
2022/03/08 21:27:52;;;;;;;45.00;40.40;;;;;;;9.51;100.00;101480.66;2012520;71;33356;-73
2022/03/08 21:33:41;;;;;;;45.67;41.07;;;;;;;9.47;100.00;101477.28;2000771;70;32860;-84
2022/03/08 21:39:26;;;;;;;47.20;42.40;;;;;;;9.60;100.00;101497.66;2009650;71;32837;-80
2022/03/08 21:45:14;;;;;;;48.60;43.70;;;;;;;9.53;100.00;101500.66;1998225;70;32842;-73
2022/03/08 21:51:01;;;;;;;57.20;52.07;;;;;;;9.09;100.00;101518.46;2050704;69;32835;-82
2022/03/08 21:56:47;;;;;;;64.53;58.87;;;;;;;9.18;100.00;101516.07;2006782;71;32801;-72
2022/03/08 21:59:18;;;;;;;66.47;60.83;;;;;;;8.83;100.00;101520.08;1985419;72;26398;-76
2022/03/08 22:05:04;;;;;;;68.97;62.73;;;;;;;8.86;100.00;101518.17;1975306;72;32963;-74
2022/03/08 22:10:49;;;;;;;74.03;67.63;;;;;;;8.76;100.00;101514.45;1991297;71;33314;-78
2022/03/08 22:16:33;;;;;;;83.37;76.97;;;;;;;8.47;100.00;101513.20;2007474;71;32765;-77
2022/03/08 22:22:18;;;;;;;87.47;80.80;;;;;;;8.48;100.00;101520.43;2007705;71;33299;-73
2022/03/08 22:28:04;;;;;;;92.30;85.40;;;;;;;8.39;100.00;101527.49;2007878;71;33277;-74
2022/03/08 22:33:49;;;;;;;97.97;90.47;;;;;;;7.97;100.00;101539.53;2007450;71;33336;-73
2022/03/08 22:39:35;;;;;;;97.60;89.50;;;;;;;8.04;100.00;101530.54;2004719;71;32879;-69
2022/03/08 22:45:21;;;;;;;99.10;91.27;;;;;;;8.41;100.00;101522.55;2011027;71;32770;-72
2022/03/08 22:57:11;;;;;;;98.77;90.60;;;;;;;7.88;100.00;101538.27;2009353;71;33399;-75
2022/03/08 23:02:55;;;;;;;92.10;84.40;;;;;;;8.12;100.00;101538.95;1995763;71;33275;-76
2022/03/08 23:08:40;;;;;;;95.83;88.17;;;;;;;7.96;100.00;101537.03;2000447;71;32761;-76
2022/03/08 23:14:24;;;;;;;92.47;84.87;;;;;;;7.79;100.00;101530.92;2013716;71;33188;-78
2022/03/08 23:20:10;;;;;;;94.37;86.50;;;;;;;7.70;100.00;101539.91;2003146;70;32886;-77
2022/03/08 23:25:55;;;;;;;93.27;85.57;;;;;;;7.80;100.00;101546.98;2014588;71;33059;-79
2022/03/08 23:31:41;;;;;;;95.10;86.93;;;;;;;7.49;100.00;101541.97;2005654;71;32892;-78
2022/03/08 23:37:25;;;;;;;96.43;88.00;;;;;;;7.38;100.00;101550.63;2009418;71;33319;-78
2022/03/08 23:43:13;;;;;;;95.23;87.10;;;;;;;7.74;100.00;101544.66;2000851;71;32955;-79
2022/03/08 23:48:58;;;;;;;93.73;85.63;;;;;;;7.50;100.00;101547.80;2013334;71;32879;-77
2022/03/08 23:54:42;;;;;;;95.20;86.67;;;;;;;7.45;100.00;101551.31;2007519;71;32758;-75
